createdAt,value
2022-12-27T00:00:19.425Z,101877.22
2022-12-27T00:05:15.688Z,101865.31
2022-12-27T00:10:11.798Z,101870.53
2022-12-27T00:15:05.732Z,101811.00
2022-12-27T00:19:58.947Z,101812.63
2022-12-27T00:24:52.711Z,101828.75
2022-12-27T00:29:47.273Z,101793.19
2022-12-27T00:34:40.591Z,101863.84
2022-12-27T00:39:33.800Z,101816.25
2022-12-27T00:44:27.081Z,101861.28
2022-12-27T00:49:26.340Z,101808.50
2022-12-27T00:54:19.893Z,101830.66
2022-12-27T00:59:13.367Z,101721.22
2022-12-27T01:04:07.512Z,101812.09
2022-12-27T01:09:03.281Z,101804.50
2022-12-27T01:14:00.516Z,101801.91
2022-12-27T01:18:57.573Z,101799.34
2022-12-27T01:23:51.127Z,101807.69
2022-12-27T01:28:45.922Z,101751.56
2022-12-27T01:33:39.763Z,101793.22
2022-12-27T01:38:33.077Z,101786.44
2022-12-27T01:43:39.265Z,101789.88
2022-12-27T01:48:34.022Z,101807.94
2022-12-27T01:53:31.347Z,101805.41
2022-12-27T01:58:29.876Z,101802.00
2022-12-27T02:03:28.444Z,101632.84
2022-12-27T02:08:38.960Z,101725.47
2022-12-27T02:13:35.944Z,101796.00
2022-12-27T02:18:29.477Z,101764.53
2022-12-27T02:24:04.674Z,101616.88
2022-12-27T02:29:11.560Z,101707.81
2022-12-27T02:34:11.565Z,101731.63
2022-12-27T02:39:06.684Z,101796.22
2022-12-27T02:44:17.257Z,101791.13
2022-12-27T02:49:43.847Z,101741.88
2022-12-27T02:54:54.070Z,101641.63
2022-12-27T03:00:21.120Z,101757.28
2022-12-27T03:05:26.008Z,101727.53
2022-12-27T03:10:45.615Z,101656.91
2022-12-27T03:15:57.431Z,101771.47
2022-12-27T03:21:09.871Z,101773.13
2022-12-27T03:26:05.348Z,101671.97
2022-12-27T03:31:21.507Z,101706.69
2022-12-27T03:36:37.656Z,101739.78
2022-12-27T03:41:53.271Z,101735.53
2022-12-27T03:46:47.534Z,101717.50
2022-12-27T03:51:46.069Z,101772.75
2022-12-27T03:56:41.942Z,101771.81
2022-12-27T04:01:36.361Z,101770.88
2022-12-27T04:06:29.765Z,101711.22
2022-12-27T04:11:41.732Z,101711.09
2022-12-27T04:16:52.373Z,101723.72
2022-12-27T04:22:03.038Z,101718.34
2022-12-27T04:27:15.385Z,101637.03
2022-12-27T04:32:26.245Z,101754.31
2022-12-27T04:37:21.285Z,101689.72
2022-12-27T04:42:33.464Z,101716.06
2022-12-27T04:47:44.632Z,101796.00
2022-12-27T04:52:55.150Z,101798.53
2022-12-27T04:57:50.510Z,101738.22
2022-12-27T05:02:43.977Z,101756.78
2022-12-27T05:07:56.042Z,101735.66
2022-12-27T05:13:04.494Z,101758.56
2022-12-27T05:17:58.953Z,101739.75
2022-12-27T05:23:09.467Z,101700.69
2022-12-27T05:28:04.199Z,101702.31
2022-12-27T05:32:57.510Z,101697.22
2022-12-27T05:37:54.851Z,101695.44
2022-12-27T05:42:48.474Z,101699.84
2022-12-27T05:47:43.628Z,101723.50
2022-12-27T05:52:40.983Z,101612.81
2022-12-27T05:57:34.752Z,101697.31
2022-12-27T06:02:28.200Z,101736.47
2022-12-27T06:07:23.044Z,101734.81
2022-12-27T06:12:16.376Z,101722.09
2022-12-27T06:17:09.601Z,101738.28
2022-12-27T06:22:03.043Z,101774.13
2022-12-27T06:26:57.623Z,101603.38
2022-12-27T06:31:51.088Z,101738.97
2022-12-27T06:36:49.918Z,101691.34
2022-12-27T06:41:43.456Z,101528.72
2022-12-27T06:46:38.378Z,101661.94
2022-12-27T06:51:31.889Z,101737.38
2022-12-27T06:56:25.081Z,101720.41
2022-12-27T07:01:22.340Z,101687.25
2022-12-27T07:06:17.075Z,101689.69
2022-12-27T07:11:12.724Z,101704.72
2022-12-27T07:16:06.801Z,101680.78
2022-12-27T07:21:06.559Z,101681.38
2022-12-27T07:26:08.145Z,101470.03
2022-12-27T07:31:10.470Z,101699.25
2022-12-27T07:36:05.650Z,101720.19
2022-12-27T07:41:00.394Z,101642.75
2022-12-27T07:45:55.282Z,101695.03
2022-12-27T07:50:55.605Z,101630.28
2022-12-27T07:55:49.068Z,101717.94
2022-12-27T08:00:44.475Z,101540.59
2022-12-27T08:05:39.564Z,101664.53
2022-12-27T08:10:34.121Z,101697.84
2022-12-27T08:15:27.707Z,101642.69
2022-12-27T08:20:23.383Z,101686.31
2022-12-27T08:25:19.526Z,101637.63
2022-12-27T08:30:13.710Z,101572.72
2022-12-27T08:35:41.731Z,101651.97
2022-12-27T08:40:24.624Z,101597.94
2022-12-27T08:45:18.348Z,101688.81
2022-12-27T08:50:14.133Z,101567.78
2022-12-27T08:55:08.914Z,101640.75
2022-12-27T09:00:09.798Z,101576.09
2022-12-27T09:05:03.210Z,101400.72
2022-12-27T09:09:56.899Z,101508.75
2022-12-27T09:14:51.221Z,101609.03
2022-12-27T09:19:46.118Z,101559.16
2022-12-27T09:24:39.468Z,101568.84
2022-12-27T09:29:32.925Z,101609.69
2022-12-27T09:34:29.423Z,101622.28
2022-12-27T09:39:38.045Z,101436.13
2022-12-27T09:44:39.440Z,101433.03
2022-12-27T09:49:36.828Z,101596.91
2022-12-27T09:54:41.274Z,101597.22
2022-12-27T09:59:46.339Z,101535.81
2022-12-27T10:05:17.672Z,101624.06
2022-12-27T10:10:02.168Z,101601.66
2022-12-27T10:15:17.630Z,101452.94
2022-12-27T10:20:22.929Z,101422.63
2022-12-27T10:25:20.671Z,101598.66
2022-12-27T10:30:20.015Z,101581.22
2022-12-27T10:35:19.275Z,101519.41
2022-12-27T10:40:27.628Z,101558.19
2022-12-27T10:45:27.661Z,101377.50
2022-12-27T10:50:27.502Z,101370.69
2022-12-27T10:55:35.547Z,101508.63
2022-12-27T11:00:34.861Z,101438.34
2022-12-27T11:05:30.235Z,101437.69
2022-12-27T11:10:26.107Z,101528.00
2022-12-27T11:15:21.078Z,101350.66
2022-12-27T11:20:26.818Z,101502.56
2022-12-27T11:25:27.468Z,101530.13
2022-12-27T11:30:30.094Z,101539.63
2022-12-27T11:35:24.640Z,101487.66
2022-12-27T11:40:33.616Z,101463.00
2022-12-27T11:45:38.089Z,101511.81
2022-12-27T11:50:44.548Z,101475.25
2022-12-27T11:55:58.824Z,101484.44
2022-12-27T12:01:05.640Z,101435.22
2022-12-27T12:06:10.025Z,101491.44
2022-12-27T12:11:16.725Z,101474.25
2022-12-27T12:16:46.673Z,101497.22
2022-12-27T12:21:56.076Z,101551.69
2022-12-27T12:27:03.142Z,101557.03
2022-12-27T12:32:25.293Z,101514.25
2022-12-27T12:37:32.130Z,101561.25
2022-12-27T12:42:48.593Z,101550.75
2022-12-27T12:48:06.148Z,101535.34
2022-12-27T12:53:27.091Z,101577.69
2022-12-27T12:58:40.318Z,101577.03
2022-12-27T13:04:03.496Z,101580.50
2022-12-27T13:09:10.367Z,101410.56
2022-12-27T13:14:30.154Z,101592.03
2022-12-27T13:19:43.174Z,101537.38
2022-12-27T13:24:52.099Z,101571.91
2022-12-27T13:30:04.531Z,101587.00
2022-12-27T13:35:20.190Z,101617.50
2022-12-27T13:40:30.467Z,101637.09
2022-12-27T13:45:40.372Z,101551.34
2022-12-27T13:50:54.198Z,101599.56
2022-12-27T13:55:57.537Z,101661.47
2022-12-27T14:01:01.333Z,101566.91
2022-12-27T14:06:33.199Z,101570.16
2022-12-27T14:11:40.247Z,101591.09
2022-12-27T14:16:42.817Z,101622.94
2022-12-27T14:21:57.421Z,101636.63
2022-12-27T14:27:18.932Z,101635.72
2022-12-27T14:32:41.217Z,101679.72
2022-12-27T14:38:12.992Z,101683.94
2022-12-27T14:43:50.989Z,101690.09
2022-12-27T14:49:12.712Z,101681.91
2022-12-27T14:54:46.929Z,101577.84
2022-12-27T14:59:51.810Z,101615.97
2022-12-27T15:05:01.558Z,101713.00
2022-12-27T15:10:05.917Z,101717.00
2022-12-27T15:15:16.816Z,101635.56
2022-12-27T15:20:33.560Z,101678.31
2022-12-27T15:25:44.184Z,101738.16
2022-12-27T15:30:48.342Z,101759.66
2022-12-27T15:35:52.892Z,101682.16
2022-12-27T15:41:15.659Z,101759.84
2022-12-27T15:46:24.259Z,101747.47
2022-12-27T15:51:31.101Z,101726.13
2022-12-27T15:56:44.583Z,101786.66
2022-12-27T16:01:39.350Z,101664.03
2022-12-27T16:06:58.952Z,101660.47
2022-12-27T16:12:05.891Z,101792.66
2022-12-27T16:17:24.626Z,101781.53
2022-12-27T16:22:26.549Z,101799.25
2022-12-27T16:27:31.443Z,101694.06
2022-12-27T16:32:30.911Z,101815.81
2022-12-27T16:37:31.401Z,101755.28
2022-12-27T16:42:41.210Z,101702.22
2022-12-27T16:48:03.512Z,101821.16
2022-12-27T16:53:10.194Z,101695.09
2022-12-27T16:58:33.950Z,101826.63
2022-12-27T17:03:33.720Z,101818.97
2022-12-27T17:08:27.484Z,101700.22
2022-12-27T17:13:24.398Z,101857.63
2022-12-27T17:18:28.886Z,101786.25
2022-12-27T17:23:23.469Z,101847.25
2022-12-27T17:28:26.401Z,101871.94
2022-12-27T17:33:37.677Z,101755.06
2022-12-27T17:38:44.628Z,101859.44
2022-12-27T17:44:06.582Z,101889.19
2022-12-27T17:49:01.882Z,101852.53
2022-12-27T17:54:13.860Z,101810.16
2022-12-27T17:59:14.622Z,101739.94
2022-12-27T18:04:09.678Z,101885.13
2022-12-27T18:09:03.428Z,101899.28
2022-12-27T18:14:00.793Z,101894.59
2022-12-27T18:19:00.266Z,101860.59
2022-12-27T18:23:57.014Z,101780.44
2022-12-27T18:28:50.596Z,101894.84
2022-12-27T18:33:47.126Z,101928.69
2022-12-27T18:38:45.920Z,101936.97
2022-12-27T18:43:46.346Z,101876.69
2022-12-27T18:48:42.197Z,101950.03
2022-12-27T18:53:40.830Z,101933.75
2022-12-27T18:59:04.678Z,101955.41
2022-12-27T19:04:25.010Z,101963.06
2022-12-27T19:09:20.992Z,101964.06
2022-12-27T19:14:22.999Z,101889.03
2022-12-27T19:19:21.089Z,101937.97
2022-12-27T19:24:39.168Z,101981.84
2022-12-27T19:29:39.406Z,101900.84
2022-12-27T19:34:44.856Z,101925.94
2022-12-27T19:39:40.386Z,101981.59
2022-12-27T19:44:35.803Z,101995.38
2022-12-27T19:49:43.117Z,101910.81
2022-12-27T19:54:37.074Z,101827.28
2022-12-27T19:59:30.293Z,101887.94
2022-12-27T20:04:25.147Z,101956.19
2022-12-27T20:09:20.645Z,101957.31
2022-12-27T20:14:14.813Z,101989.34
2022-12-27T20:19:08.242Z,101908.28
2022-12-27T20:24:02.932Z,102013.25
2022-12-27T20:28:56.219Z,102025.44
2022-12-27T20:33:53.425Z,101968.19
2022-12-27T20:38:47.799Z,102019.69
2022-12-27T20:43:45.762Z,102031.88
2022-12-27T20:48:40.281Z,102031.53
2022-12-27T20:53:33.740Z,102032.38
2022-12-27T20:58:27.297Z,101966.88
2022-12-27T21:03:22.027Z,102077.25
2022-12-27T21:08:20.123Z,102090.44
2022-12-27T21:13:13.401Z,102102.00
2022-12-27T21:18:09.640Z,101964.22
2022-12-27T21:23:04.358Z,102127.75
2022-12-27T21:27:57.824Z,102102.16
2022-12-27T21:32:51.171Z,102049.34
2022-12-27T21:37:44.508Z,102076.59
2022-12-27T21:42:39.183Z,102154.53
2022-12-27T21:47:32.534Z,102141.84
2022-12-27T21:52:25.721Z,102101.00
2022-12-27T21:57:19.008Z,102172.19
2022-12-27T22:02:17.196Z,102179.34
2022-12-27T22:07:10.516Z,102133.53
2022-12-27T22:12:03.810Z,102158.34
2022-12-27T22:17:00.166Z,102129.31
2022-12-27T22:21:54.808Z,102158.91
2022-12-27T22:26:50.418Z,102153.78
2022-12-27T22:31:44.113Z,102169.06
2022-12-27T22:36:40.956Z,102082.69
2022-12-27T22:41:37.896Z,102192.91
2022-12-27T22:46:58.668Z,102209.63
2022-12-27T22:51:48.283Z,102208.06
2022-12-27T22:56:44.081Z,102200.50
2022-12-27T23:01:37.527Z,102164.31
2022-12-27T23:06:32.378Z,102131.47
2022-12-27T23:11:28.098Z,102219.38
2022-12-27T23:16:22.783Z,102199.72
2022-12-27T23:21:20.731Z,102171.09
2022-12-27T23:26:19.939Z,102147.50
2022-12-27T23:31:14.656Z,102215.75
2022-12-27T23:36:10.095Z,102209.41
2022-12-27T23:41:05.725Z,102170.91
2022-12-27T23:46:05.918Z,102166.63
2022-12-27T23:50:59.296Z,102212.09
2022-12-27T23:55:58.348Z,102159.69
